createdAt,value
2023-01-28T00:00:57.147Z,101009.75
2023-01-28T00:03:25.541Z,101016.84
2023-01-28T00:05:54.377Z,101015.97
2023-01-28T00:08:22.135Z,101017.78
2023-01-28T00:10:49.943Z,101022.19
2023-01-28T00:13:17.710Z,101018.75
2023-01-28T00:15:45.915Z,101024.00
2023-01-28T00:18:14.156Z,101027.56
2023-01-28T00:20:41.832Z,101017.94
2023-01-28T00:23:09.543Z,101016.16
2023-01-28T00:25:37.364Z,101015.31
2023-01-28T00:28:05.419Z,101017.13
2023-01-28T00:30:33.181Z,101018.94
2023-01-28T00:33:00.955Z,101019.03
2023-01-28T00:35:30.364Z,101019.03
2023-01-28T00:37:58.056Z,101017.25
2023-01-28T00:40:27.578Z,101008.53
2023-01-28T00:42:55.294Z,101013.78
2023-01-28T00:45:22.993Z,101014.63
2023-01-28T00:47:50.668Z,101018.16
2023-01-28T00:50:18.342Z,101016.50
2023-01-28T00:52:46.663Z,101014.75
2023-01-28T00:55:14.587Z,101020.84
2023-01-28T00:57:42.562Z,101015.63
2023-01-28T01:00:10.228Z,101022.66
2023-01-28T01:02:40.903Z,101022.66
2023-01-28T01:05:09.734Z,101027.09
2023-01-28T01:07:42.908Z,101030.59
2023-01-28T01:10:10.535Z,101032.38
2023-01-28T01:12:38.204Z,101031.53
2023-01-28T01:15:09.227Z,101029.72
2023-01-28T01:17:38.676Z,101033.28
2023-01-28T01:20:06.499Z,101032.38
2023-01-28T01:22:34.193Z,101021.88
2023-01-28T01:25:01.852Z,101017.50
2023-01-28T01:27:29.479Z,101020.09
2023-01-28T01:29:57.694Z,101022.75
2023-01-28T01:32:25.359Z,101033.28
2023-01-28T01:34:53.061Z,101035.94
2023-01-28T01:37:20.759Z,101028.06
2023-01-28T01:39:49.159Z,101027.25
2023-01-28T01:42:17.210Z,101033.41
2023-01-28T01:44:45.425Z,101022.94
2023-01-28T01:47:13.029Z,101034.31
2023-01-28T01:49:40.726Z,101032.59
2023-01-28T01:52:08.421Z,101035.28
2023-01-28T01:54:36.470Z,101036.19
2023-01-28T01:57:04.079Z,101041.44
2023-01-28T01:59:31.753Z,101033.56
2023-01-28T02:01:59.416Z,101044.97
2023-01-28T02:04:27.097Z,101042.41
2023-01-28T02:06:57.159Z,101042.41
2023-01-28T02:09:24.762Z,101034.53
2023-01-28T02:11:52.383Z,101040.69
2023-01-28T02:14:30.517Z,101042.41
2023-01-28T02:16:59.204Z,101047.69
2023-01-28T02:19:26.853Z,101051.22
2023-01-28T02:21:54.537Z,101046.00
2023-01-28T02:24:22.209Z,101051.25
2023-01-28T02:26:49.926Z,101045.16
2023-01-28T02:29:17.876Z,101053.94
2023-01-28T02:31:45.622Z,101055.69
2023-01-28T02:34:13.340Z,101055.81
2023-01-28T02:36:40.949Z,101050.56
2023-01-28T02:39:08.578Z,101061.09
2023-01-28T02:41:36.592Z,101062.00
2023-01-28T02:44:04.363Z,101065.53
2023-01-28T02:46:49.270Z,101076.97
2023-01-28T02:49:16.901Z,101066.47
2023-01-28T02:51:44.897Z,101070.94
2023-01-28T02:54:11.537Z,101074.41
2023-01-28T02:56:39.159Z,101067.44
2023-01-28T02:59:26.760Z,101067.53
2023-01-28T03:01:58.806Z,101066.69
2023-01-28T03:04:26.420Z,101070.28
2023-01-28T03:06:54.479Z,101061.56
2023-01-28T03:09:27.007Z,101061.63
2023-01-28T03:12:12.746Z,101060.72
2023-01-28T03:14:57.597Z,101065.97
2023-01-28T03:17:42.624Z,101065.97
2023-01-28T03:20:27.543Z,101064.19
2023-01-28T03:23:12.893Z,101067.69
2023-01-28T03:25:57.836Z,101064.19
2023-01-28T03:28:42.992Z,101059.84
2023-01-28T03:31:28.052Z,101053.75
2023-01-28T03:34:13.322Z,101052.03
2023-01-28T03:36:50.732Z,101047.66
2023-01-28T03:39:18.392Z,101051.16
2023-01-28T03:41:45.991Z,101055.53
2023-01-28T03:44:31.586Z,101064.31
2023-01-28T03:46:59.354Z,101066.13
2023-01-28T03:49:27.393Z,101058.25
2023-01-28T03:51:55.031Z,101067.03
2023-01-28T03:54:22.650Z,101064.41
2023-01-28T03:56:50.585Z,101076.66
2023-01-28T03:59:18.479Z,101067.03
2023-01-28T04:01:46.128Z,101067.03
2023-01-28T04:04:23.124Z,101075.91
2023-01-28T04:06:50.737Z,101069.03
2023-01-28T04:09:18.358Z,101075.19
2023-01-28T04:11:46.455Z,101066.41
2023-01-28T04:14:14.565Z,101076.03
2023-01-28T04:16:42.181Z,101075.19
2023-01-28T04:19:10.131Z,101081.25
2023-01-28T04:21:37.769Z,101069.03
2023-01-28T04:24:05.436Z,101072.56
2023-01-28T04:26:33.097Z,101070.84
2023-01-28T04:29:00.728Z,101068.16
2023-01-28T04:31:28.734Z,101073.38
2023-01-28T04:33:57.926Z,101078.63
2023-01-28T04:36:25.522Z,101080.38
2023-01-28T04:38:53.107Z,101084.81
2023-01-28T04:41:20.796Z,101078.72
2023-01-28T04:43:49.848Z,101090.03
2023-01-28T04:46:17.685Z,101087.41
2023-01-28T04:48:45.476Z,101093.56
2023-01-28T04:51:13.111Z,101095.31
2023-01-28T04:53:40.743Z,101097.94
2023-01-28T04:56:09.092Z,101097.97
2023-01-28T04:58:36.677Z,101098.88
2023-01-28T05:01:04.300Z,101094.53
2023-01-28T05:03:31.977Z,101101.56
2023-01-28T05:05:59.711Z,101106.88
2023-01-28T05:08:27.707Z,101105.13
2023-01-28T05:10:55.534Z,101099.00
2023-01-28T05:13:23.163Z,101105.16
2023-01-28T05:15:50.752Z,101101.66
2023-01-28T05:18:18.765Z,101093.84
2023-01-28T05:20:46.750Z,101093.91
2023-01-28T05:23:14.572Z,101095.66
2023-01-28T05:25:42.233Z,101087.81
2023-01-28T05:28:09.832Z,101092.19
2023-01-28T05:30:37.438Z,101079.94
2023-01-28T05:33:05.422Z,101089.53
2023-01-28T05:35:33.215Z,101097.41
2023-01-28T05:38:00.848Z,101097.44
2023-01-28T05:40:28.927Z,101102.69
2023-01-28T05:42:56.520Z,101103.56
2023-01-28T05:45:24.629Z,101107.00
2023-01-28T05:47:52.305Z,101112.25
2023-01-28T05:50:19.907Z,101110.53
2023-01-28T05:52:47.541Z,101116.72
2023-01-28T05:55:15.211Z,101117.66
2023-01-28T05:57:44.959Z,101117.78
2023-01-28T06:00:13.373Z,101118.72
2023-01-28T06:02:41.523Z,101125.78
2023-01-28T06:05:09.181Z,101130.19
2023-01-28T06:07:36.815Z,101127.59
2023-01-28T06:10:04.842Z,101122.38
2023-01-28T06:12:32.472Z,101124.97
2023-01-28T06:15:00.103Z,101117.94
2023-01-28T06:17:27.776Z,101115.31
2023-01-28T06:19:55.358Z,101126.69
2023-01-28T06:22:23.349Z,101124.97
2023-01-28T06:24:50.984Z,101122.38
2023-01-28T06:27:18.571Z,101134.66
2023-01-28T06:29:46.173Z,101122.41
2023-01-28T06:32:13.908Z,101129.41
2023-01-28T06:34:42.514Z,101131.16
2023-01-28T06:37:10.110Z,101125.03
2023-01-28T06:39:37.756Z,101125.03
2023-01-28T06:42:05.407Z,101122.38
2023-01-28T06:44:33.032Z,101131.19
2023-01-28T06:47:01.499Z,101130.28
2023-01-28T06:49:29.266Z,101132.91
2023-01-28T06:51:56.920Z,101122.38
2023-01-28T06:54:24.591Z,101125.91
2023-01-28T06:56:52.216Z,101134.66
2023-01-28T06:59:20.168Z,101128.53
2023-01-28T07:01:47.884Z,101132.06
2023-01-28T07:04:15.535Z,101128.63
2023-01-28T07:06:43.266Z,101130.41
2023-01-28T07:09:11.730Z,101119.97
2023-01-28T07:11:39.747Z,101129.59
2023-01-28T07:14:07.661Z,101130.47
2023-01-28T07:16:35.366Z,101119.09
2023-01-28T07:19:03.014Z,101120.88
2023-01-28T07:21:30.599Z,101120.91
2023-01-28T07:23:58.645Z,101116.53
2023-01-28T07:26:26.794Z,101110.41
2023-01-28T07:28:54.375Z,101118.25
2023-01-28T07:31:22.586Z,101119.09
2023-01-28T07:33:50.260Z,101120.88
2023-01-28T07:36:18.269Z,101122.69
2023-01-28T07:38:45.981Z,101121.72
2023-01-28T07:41:13.631Z,101128.75
2023-01-28T07:43:41.247Z,101122.63
2023-01-28T07:46:08.926Z,101114.72
2023-01-28T07:48:37.427Z,101123.50
2023-01-28T07:51:05.305Z,101125.22
2023-01-28T07:53:33.035Z,101126.94
2023-01-28T07:56:00.924Z,101130.38
2023-01-28T07:58:28.579Z,101135.53
2023-01-28T08:00:56.623Z,101133.75
2023-01-28T08:03:24.499Z,101144.25
2023-01-28T08:05:52.204Z,101146.81
2023-01-28T08:08:19.984Z,101152.03
2023-01-28T08:10:47.632Z,101144.09
2023-01-28T08:13:15.647Z,101143.22
2023-01-28T08:15:43.372Z,101149.34
2023-01-28T08:18:13.144Z,101144.91
2023-01-28T08:20:41.103Z,101163.22
2023-01-28T08:23:08.781Z,101157.94
2023-01-28T08:25:36.862Z,101169.22
2023-01-28T08:28:04.679Z,101177.00
2023-01-28T08:30:32.541Z,101182.22
2023-01-28T08:33:00.283Z,101179.50
2023-01-28T08:35:28.523Z,101186.47
2023-01-28T08:37:56.732Z,101182.13
2023-01-28T08:40:24.639Z,101184.72
2023-01-28T08:42:52.585Z,101175.94
2023-01-28T08:45:20.368Z,101189.03
2023-01-28T08:47:48.161Z,101192.44
2023-01-28T08:50:16.234Z,101197.63
2023-01-28T08:52:44.821Z,101195.81
2023-01-28T08:55:12.677Z,101208.88
2023-01-28T08:57:40.700Z,101214.91
2023-01-28T09:00:08.589Z,101221.03
2023-01-28T09:02:36.576Z,101218.41
2023-01-28T09:05:04.753Z,101228.91
2023-01-28T09:07:32.599Z,101226.28
2023-01-28T09:10:00.409Z,101235.94
2023-01-28T09:12:28.140Z,101248.16
2023-01-28T09:14:55.900Z,101232.44
2023-01-28T09:17:23.826Z,101242.13
2023-01-28T09:19:52.257Z,101243.81
2023-01-28T09:22:20.080Z,101249.00
2023-01-28T09:24:47.917Z,101249.84
2023-01-28T09:27:16.068Z,101253.31
2023-01-28T09:29:44.395Z,101241.97
2023-01-28T09:32:12.140Z,101250.69
2023-01-28T09:34:40.148Z,101256.03
2023-01-28T09:37:07.992Z,101257.81
2023-01-28T09:39:35.853Z,101254.41
2023-01-28T09:42:05.798Z,101256.16
2023-01-28T09:44:33.649Z,101251.69
2023-01-28T09:47:01.905Z,101262.94
2023-01-28T09:49:29.896Z,101276.88
2023-01-28T09:51:58.089Z,101268.13
2023-01-28T09:54:26.012Z,101276.03
2023-01-28T09:56:53.850Z,101268.25
2023-01-28T09:59:21.672Z,101275.38
2023-01-28T10:01:49.757Z,101275.41
2023-01-28T10:04:17.907Z,101267.59
2023-01-28T10:06:45.958Z,101276.31
2023-01-28T10:09:13.840Z,101271.00
2023-01-28T10:11:41.633Z,101277.97
2023-01-28T10:14:09.505Z,101273.53
2023-01-28T10:16:37.743Z,101273.44
2023-01-28T10:19:05.678Z,101268.16
2023-01-28T10:21:33.670Z,101268.13
2023-01-28T10:24:01.668Z,101266.28
2023-01-28T10:26:29.997Z,101253.97
2023-01-28T10:28:58.692Z,101252.91
2023-01-28T10:31:26.665Z,101252.75
2023-01-28T10:33:54.543Z,101245.56
2023-01-28T10:36:22.583Z,101240.19
2023-01-28T10:38:50.495Z,101240.06
2023-01-28T10:41:18.703Z,101238.16
2023-01-28T10:43:46.949Z,101233.69
2023-01-28T10:46:14.965Z,101241.47
2023-01-28T10:48:43.221Z,101250.16
2023-01-28T10:51:11.334Z,101247.50
2023-01-28T10:53:39.723Z,101252.72
2023-01-28T10:56:08.123Z,101246.59
2023-01-28T10:58:36.061Z,101239.66
2023-01-28T11:01:03.919Z,101242.38
2023-01-28T11:03:32.333Z,101256.41
2023-01-28T11:06:01.015Z,101252.03
2023-01-28T11:08:29.199Z,101252.88
2023-01-28T11:11:01.206Z,101249.38
2023-01-28T11:13:29.121Z,101259.81
2023-01-28T11:15:56.993Z,101264.97
2023-01-28T11:18:25.765Z,101258.69
2023-01-28T11:20:53.948Z,101263.97
2023-01-28T11:23:21.799Z,101260.50
2023-01-28T11:25:50.006Z,101269.31
2023-01-28T11:28:17.815Z,101268.41
2023-01-28T11:30:46.048Z,101278.03
2023-01-28T11:33:15.386Z,101285.09
2023-01-28T11:35:43.241Z,101268.44
2023-01-28T11:38:11.009Z,101274.59
2023-01-28T11:40:39.001Z,101267.59
2023-01-28T11:43:07.164Z,101260.66
2023-01-28T11:45:35.251Z,101272.13
2023-01-28T11:48:03.281Z,101267.03
2023-01-28T11:50:31.133Z,101262.78
2023-01-28T11:53:07.670Z,101260.13
2023-01-28T11:55:36.671Z,101266.16
2023-01-28T11:58:04.780Z,101264.34
2023-01-28T12:00:33.050Z,101265.25
2023-01-28T12:03:01.192Z,101255.66
2023-01-28T12:05:29.020Z,101250.41
2023-01-28T12:07:57.507Z,101247.75
2023-01-28T12:10:25.600Z,101238.03
2023-01-28T12:12:53.370Z,101239.63
2023-01-28T12:15:21.878Z,101243.00
2023-01-28T12:17:49.762Z,101238.47
2023-01-28T12:20:18.384Z,101236.69
2023-01-28T12:22:46.478Z,101238.28
2023-01-28T12:25:14.564Z,101242.59
2023-01-28T12:27:42.658Z,101237.31
2023-01-28T12:30:10.575Z,101232.97
2023-01-28T12:32:40.332Z,101225.13
2023-01-28T12:35:08.441Z,101217.19
2023-01-28T12:37:36.734Z,101209.94
2023-01-28T12:40:04.813Z,101200.06
2023-01-28T12:42:32.632Z,101183.97
2023-01-28T12:45:00.834Z,101181.88
2023-01-28T12:47:28.820Z,101181.31
2023-01-28T12:49:57.450Z,101178.28
2023-01-28T12:52:25.413Z,101178.16
2023-01-28T12:54:53.561Z,101173.88
2023-01-28T12:57:22.353Z,101155.97
2023-01-28T12:59:50.666Z,101133.78
2023-01-28T13:02:19.038Z,101118.53
2023-01-28T13:04:46.989Z,101108.19
2023-01-28T13:07:15.023Z,101089.66
2023-01-28T13:09:44.121Z,101090.69
2023-01-28T13:12:13.778Z,101090.03
2023-01-28T13:14:41.779Z,101092.94
2023-01-28T13:17:09.905Z,101077.97
2023-01-28T13:19:38.029Z,101085.75
2023-01-28T13:22:06.305Z,101088.03
2023-01-28T13:24:34.458Z,101101.19
2023-01-28T13:27:02.388Z,101114.47
2023-01-28T13:29:30.701Z,101117.91
2023-01-28T13:31:58.698Z,101107.53
2023-01-28T13:34:26.737Z,101118.16
2023-01-28T13:36:54.727Z,101122.59
2023-01-28T13:39:22.623Z,101128.34
2023-01-28T13:41:50.974Z,101125.72
2023-01-28T13:44:18.909Z,101123.81
2023-01-28T13:46:47.817Z,101132.56
2023-01-28T13:49:15.706Z,101129.81
2023-01-28T13:51:43.570Z,101152.63
2023-01-28T13:54:11.615Z,101150.09
2023-01-28T13:56:39.479Z,101151.03
2023-01-28T13:59:07.801Z,101162.97
2023-01-28T14:01:35.941Z,101174.31
2023-01-28T14:04:04.234Z,101173.34
2023-01-28T14:06:32.109Z,101173.16
2023-01-28T14:09:00.186Z,101173.75
2023-01-28T14:11:28.024Z,101171.38
2023-01-28T14:13:55.964Z,101182.47
2023-01-28T14:16:23.966Z,101187.03
2023-01-28T14:18:52.021Z,101197.94
2023-01-28T14:21:19.895Z,101187.81
2023-01-28T14:23:49.310Z,101176.81
2023-01-28T14:26:18.125Z,101170.97
2023-01-28T14:28:46.079Z,101160.28
2023-01-28T14:31:14.257Z,101161.78
2023-01-28T14:33:42.237Z,101153.47
2023-01-28T14:36:10.567Z,101151.53
2023-01-28T14:38:38.523Z,101130.50
2023-01-28T14:41:06.333Z,101127.91
2023-01-28T14:43:34.232Z,101123.50
2023-01-28T14:46:04.030Z,101109.50
2023-01-28T14:48:35.326Z,101087.00
2023-01-28T14:51:03.371Z,101079.34
2023-01-28T14:53:31.275Z,101082.50
2023-01-28T14:55:59.282Z,101087.06
2023-01-28T14:58:27.347Z,101080.16
2023-01-28T15:00:55.424Z,101079.41
2023-01-28T15:03:25.123Z,101093.19
2023-01-28T15:05:53.820Z,101106.06
2023-01-28T15:08:21.837Z,101111.75
2023-01-28T15:10:50.280Z,101114.81
2023-01-28T15:13:18.929Z,101123.19
2023-01-28T15:15:46.799Z,101128.22
2023-01-28T15:18:14.630Z,101130.66
2023-01-28T15:20:42.702Z,101137.63
2023-01-28T15:23:10.447Z,101139.63
2023-01-28T15:25:38.814Z,101154.53
2023-01-28T15:28:06.875Z,101148.81
2023-01-28T15:30:34.887Z,101151.78
2023-01-28T15:33:03.179Z,101152.69
2023-01-28T15:35:31.177Z,101157.00
2023-01-28T15:37:59.847Z,101165.53
2023-01-28T15:40:27.940Z,101166.91
2023-01-28T15:42:56.024Z,101176.19
2023-01-28T15:45:23.968Z,101177.50
2023-01-28T15:47:51.929Z,101178.72
2023-01-28T15:50:20.301Z,101181.72
2023-01-28T15:52:48.151Z,101188.22
2023-01-28T15:55:18.276Z,101197.25
2023-01-28T15:57:47.412Z,101204.50
2023-01-28T16:00:15.322Z,101196.91
2023-01-28T16:02:43.829Z,101198.03
2023-01-28T16:05:12.834Z,101201.69
2023-01-28T16:07:40.819Z,101206.25
2023-01-28T16:10:08.700Z,101216.88
2023-01-28T16:12:36.717Z,101211.81
2023-01-28T16:15:07.673Z,101218.91
2023-01-28T16:17:35.508Z,101224.25
2023-01-28T16:20:03.423Z,101221.72
2023-01-28T16:22:31.276Z,101227.97
2023-01-28T16:24:59.224Z,101235.09
2023-01-28T16:27:28.062Z,101246.56
2023-01-28T16:29:56.002Z,101248.47
2023-01-28T16:32:23.865Z,101258.16
2023-01-28T16:34:51.962Z,101257.44
2023-01-28T16:37:20.514Z,101259.31
2023-01-28T16:39:48.632Z,101275.97
2023-01-28T16:42:16.632Z,101269.94
2023-01-28T16:44:44.644Z,101272.66
2023-01-28T16:47:12.492Z,101274.44
2023-01-28T16:49:40.617Z,101271.88
2023-01-28T16:52:09.308Z,101276.28
2023-01-28T16:54:37.150Z,101277.19
2023-01-28T16:57:05.182Z,101272.00
2023-01-28T16:59:33.444Z,101263.34
2023-01-28T17:02:01.283Z,101263.41
2023-01-28T17:04:29.977Z,101261.72
2023-01-28T17:06:57.985Z,101257.44
2023-01-28T17:09:25.993Z,101246.16
2023-01-28T17:11:54.261Z,101244.44
2023-01-28T17:14:22.197Z,101227.94
2023-01-28T17:16:50.966Z,101228.84
2023-01-28T17:19:18.948Z,101223.69
2023-01-28T17:21:46.801Z,101216.72
2023-01-28T17:24:14.686Z,101235.03
2023-01-28T17:26:42.590Z,101235.94
2023-01-28T17:29:11.153Z,101234.28
2023-01-28T17:31:39.181Z,101236.03
2023-01-28T17:34:08.649Z,101226.50
2023-01-28T17:36:36.665Z,101226.59
2023-01-28T17:39:04.758Z,101236.22
2023-01-28T17:41:35.335Z,101244.09
2023-01-28T17:44:04.734Z,101243.25
2023-01-28T17:46:32.635Z,101253.78
2023-01-28T17:49:00.644Z,101272.97
2023-01-28T17:51:28.516Z,101286.94
2023-01-28T17:53:57.416Z,101291.28
2023-01-28T17:56:26.096Z,101293.94
2023-01-28T17:58:53.925Z,101294.91
2023-01-28T18:01:21.978Z,101300.16
2023-01-28T18:03:50.731Z,101300.19
2023-01-28T18:06:19.264Z,101301.94
2023-01-28T18:08:47.071Z,101304.59
2023-01-28T18:11:15.129Z,101297.66
2023-01-28T18:13:42.933Z,101295.09
2023-01-28T18:16:10.801Z,101292.53
2023-01-28T18:18:39.646Z,101299.53
2023-01-28T18:21:07.419Z,101290.88
2023-01-28T18:23:35.227Z,101297.00
2023-01-28T18:26:04.647Z,101292.66
2023-01-28T18:28:32.514Z,101285.72
2023-01-28T18:31:00.950Z,101291.81
2023-01-28T18:33:28.914Z,101298.84
2023-01-28T18:35:56.811Z,101311.06
2023-01-28T18:38:24.762Z,101308.44
2023-01-28T18:40:52.725Z,101310.22
2023-01-28T18:43:21.290Z,101318.91
2023-01-28T18:45:50.797Z,101306.72
2023-01-28T18:48:19.170Z,101307.63
2023-01-28T18:50:47.181Z,101296.31
2023-01-28T18:53:15.092Z,101303.31
2023-01-28T18:55:43.115Z,101301.59
2023-01-28T18:58:11.065Z,101307.72
2023-01-28T19:00:39.205Z,101312.94
2023-01-28T19:03:07.209Z,101310.38
2023-01-28T19:05:35.174Z,101299.06
2023-01-28T19:08:04.068Z,101310.38
2023-01-28T19:10:32.432Z,101313.00
2023-01-28T19:13:00.393Z,101311.22
2023-01-28T19:15:28.369Z,101318.22
2023-01-28T19:17:56.274Z,101325.16
2023-01-28T19:20:24.908Z,101334.78
2023-01-28T19:22:53.015Z,101324.31
2023-01-28T19:25:21.053Z,101326.94
2023-01-28T19:27:48.860Z,101332.22
2023-01-28T19:30:17.038Z,101329.59
2023-01-28T19:32:46.788Z,101334.78
2023-01-28T19:35:15.102Z,101340.00
2023-01-28T19:37:43.173Z,101336.53
2023-01-28T19:40:11.312Z,101334.81
2023-01-28T19:42:39.386Z,101336.59
2023-01-28T19:45:08.795Z,101341.81
2023-01-28T19:47:36.916Z,101337.47
2023-01-28T19:50:04.822Z,101333.19
2023-01-28T19:52:32.743Z,101341.91
2023-01-28T19:55:00.864Z,101335.00
2023-01-28T19:57:29.789Z,101347.22
2023-01-28T19:59:57.904Z,101341.09
2023-01-28T20:02:25.917Z,101344.59
2023-01-28T20:05:00.649Z,101329.88
2023-01-28T20:07:29.254Z,101331.59
2023-01-28T20:09:57.636Z,101335.94
2023-01-28T20:12:25.531Z,101329.88
2023-01-28T20:14:53.987Z,101331.59
2023-01-28T20:17:22.070Z,101346.41
2023-01-28T20:19:50.690Z,101341.19
2023-01-28T20:22:19.015Z,101336.84
2023-01-28T20:24:46.942Z,101321.19
2023-01-28T20:27:14.756Z,101320.31
2023-01-28T20:29:42.831Z,101322.06
2023-01-28T20:32:18.270Z,101322.06
2023-01-28T20:34:47.642Z,101322.06
2023-01-28T20:37:15.538Z,101321.22
2023-01-28T20:39:43.978Z,101322.13
2023-01-28T20:42:13.810Z,101314.31
2023-01-28T20:44:41.860Z,101304.72
2023-01-28T20:47:10.274Z,101313.44
2023-01-28T20:49:38.409Z,101310.84
2023-01-28T20:52:06.283Z,101305.59
2023-01-28T20:54:34.443Z,101302.13
2023-01-28T20:57:02.863Z,101303.00
2023-01-28T20:59:33.170Z,101302.13
2023-01-28T21:02:01.683Z,101291.69
2023-01-28T21:04:29.876Z,101281.25
2023-01-28T21:06:58.409Z,101278.63
2023-01-28T21:09:28.094Z,101277.75
2023-01-28T21:11:56.766Z,101273.41
2023-01-28T21:14:24.670Z,101275.19
2023-01-28T21:16:53.261Z,101278.66
2023-01-28T21:19:22.616Z,101286.50
2023-01-28T21:21:50.561Z,101287.38
2023-01-28T21:24:18.805Z,101289.13
2023-01-28T21:26:46.854Z,101283.00
2023-01-28T21:29:14.942Z,101278.66
2023-01-28T21:31:44.418Z,101285.63
2023-01-28T21:34:12.535Z,101274.34
2023-01-28T21:36:40.836Z,101286.50
2023-01-28T21:39:08.756Z,101282.16
2023-01-28T21:41:37.295Z,101290.00
2023-01-28T21:44:05.378Z,101284.78
2023-01-28T21:46:33.414Z,101290.00
2023-01-28T21:49:01.916Z,101296.09
2023-01-28T21:51:39.899Z,101292.59
2023-01-28T21:54:07.901Z,101285.66
2023-01-28T21:56:35.757Z,101283.06
2023-01-28T21:59:21.130Z,101283.09
2023-01-28T22:01:49.399Z,101284.84
2023-01-28T22:04:17.603Z,101284.91
2023-01-28T22:06:45.569Z,101291.88
2023-01-28T22:09:14.231Z,101295.38
2023-01-28T22:11:42.678Z,101300.59
2023-01-28T22:14:10.596Z,101294.53
2023-01-28T22:16:38.542Z,101296.28
2023-01-28T22:19:06.372Z,101296.31
2023-01-28T22:21:37.860Z,101298.09
2023-01-28T22:24:06.173Z,101298.09
2023-01-28T22:26:34.057Z,101297.25
2023-01-28T22:29:02.242Z,101299.00
2023-01-28T22:31:30.359Z,101304.25
2023-01-28T22:33:58.321Z,101292.97
2023-01-28T22:36:26.268Z,101304.28
2023-01-28T22:38:54.132Z,101295.59
2023-01-28T22:41:23.637Z,101296.47
2023-01-28T22:43:51.871Z,101295.59
2023-01-28T22:46:20.024Z,101299.13
2023-01-28T22:48:48.264Z,101304.31
2023-01-28T22:51:16.180Z,101309.53
2023-01-28T22:53:44.255Z,101299.13
2023-01-28T22:56:12.171Z,101299.13
2023-01-28T22:58:40.102Z,101297.44
2023-01-28T23:01:08.661Z,101296.56
2023-01-28T23:03:38.198Z,101294.81
2023-01-28T23:06:06.321Z,101311.34
2023-01-28T23:08:35.011Z,101294.84
2023-01-28T23:11:02.778Z,101301.78
2023-01-28T23:13:54.575Z,101300.94
2023-01-28T23:16:39.692Z,101284.44
2023-01-28T23:19:24.948Z,101280.97
2023-01-28T23:22:10.015Z,101280.97
2023-01-28T23:24:38.879Z,101277.50
2023-01-28T23:27:06.786Z,101276.63
2023-01-28T23:29:35.162Z,101277.53
2023-01-28T23:32:03.820Z,101273.19
2023-01-28T23:34:31.856Z,101272.31
2023-01-28T23:37:00.241Z,101294.06
2023-01-28T23:39:28.034Z,101295.78
2023-01-28T23:41:55.839Z,101293.19
2023-01-28T23:44:23.589Z,101285.38
2023-01-28T23:46:51.535Z,101285.38
2023-01-28T23:49:19.927Z,101285.38
2023-01-28T23:51:47.831Z,101283.66
2023-01-28T23:54:15.625Z,101280.19
2023-01-28T23:56:43.386Z,101276.72
2023-01-28T23:59:11.096Z,101273.22
